• Join FlightAware (Why Join?)
  • Login
  • US Flag 
12:54PM EDT


 

Airport Tracker/Info


-or-


 

Live Flight TrackerFlight Track Log ✈ SWA3450 ✈ 27-May-2013 ✈ KDEN - KONT

Flight Track Log - Related Links

Times and Time Zones

All times are in EDT time to prevent confusion due to time zone crossing. See the SWA3450 flight status page for this flight to view local times or setup timezone preferences in your user account.

Time Position Orientation Groundspeed Altitude Reporting Facility
EDT Latitude Longitude Course Direction KTS MPH feet Rate Location/Type
11:46PM 39.9167 -104.7167 245° Southwest 219 252 6,800  Level Denver TRACON
11:47PM 39.8833 -104.7833 237° Southwest 283 326 8,400 1,980 Climbing Denver TRACON
11:48PM 39.8658 -104.8175 236° Southwest 284 327 9,600 1,800 Climbing Denver Center
11:49PM 39.8217 -104.9139 239° Southwest 316 364 11,000 2,160 Climbing Denver Center
11:50PM 39.7644 -105.0278 237° Southwest 350 403 14,100 2,580 Climbing Denver Center
11:51PM 39.7231 -105.1464 246° West 360 414 16,300 2,160 Climbing Denver Center
11:52PM 39.5921 -105.4063 245° Southwest  Level Estimated
11:52PM 39.6797 -105.2669 245° Southwest 370 426 18,500  Level Denver Center
11:53PM 39.6358 -105.3911 245° Southwest 377 434 20,600 1,680 Climbing Denver Center
11:54PM 39.5897 -105.5175 245° Southwest 390 449 22,000 1,320 Climbing Denver Center
11:55PM 39.5386 -105.6622 245° Southwest 413 475 23,400 1,620 Climbing Denver Center
11:56PM 39.5006 -105.8042 251° West 417 480 25,300 1,680 Climbing Denver Center
11:57PM 39.4636 -105.9442 251° West 415 478 26,900 1,440 Climbing Denver Center
11:58PM 39.4231 -106.0872 250° West 421 484 28,600 1,500 Climbing Denver Center
11:59PM 39.3611 -106.2433 243° Southwest 424 488 30,300 1,620 Climbing Denver Center
12:00AM 39.2800 -106.3775 232° Southwest 425 489 31,900 1,440 Climbing Denver Center
12:01AM 39.2119 -106.4917 232° Southwest 422 486 33,300 1,140 Climbing Denver Center
12:02AM 39.1442 -106.6039 232° Southwest 416 479 34,300 900 Climbing Denver Center
12:03AM 39.0650 -106.7350 232° Southwest 415 478 35,200 780 Climbing Denver Center
12:04AM 38.9964 -106.8469 232° Southwest 415 478 36,000 360 Climbing Denver Center
12:05AM 38.9289 -106.9589 232° Southwest 414 476 36,000 -600 Level Denver Center
12:06AM 38.8547 -107.0806 232° Southwest 413 475 34,900 -1,020 Descending Denver Center
12:07AM 38.7819 -107.2000 232° Southwest 411 473 34,000 -480 Descending Denver Center
12:08AM 38.7156 -107.3078 232° Southwest 403 464 34,000  Level Denver Center
12:09AM 38.6378 -107.4336 232° Southwest 402 463 34,000  Level Denver Center
12:10AM 38.5697 -107.5444 232° Southwest 411 473 34,000  Level Denver Center
12:11AM 38.5014 -107.6544 232° Southwest 412 474 34,000  Level Denver Center
12:12AM 38.4208 -107.7819 231° Southwest 413 475 34,000  Level Denver Center
12:13AM 38.3517 -107.8944 232° Southwest 417 480 34,000  Level Denver Center
12:14AM 38.2814 -108.0067 231° Southwest 421 484 34,000  Level Denver Center
12:15AM 38.2003 -108.1353 231° Southwest 418 481 34,000  Level Denver Center
12:16AM 38.1439 -108.2567 239° Southwest 415 478 34,000  Level Denver Center
12:17AM 38.0992 -108.3864 246° West 418 481 34,000  Level Denver Center
12:18AM 38.0486 -108.5244 245° Southwest 409 471 34,000  Level Denver Center
12:19AM 38.0022 -108.6486 245° Southwest 407 468 34,000  Level Denver Center
12:20AM 37.9483 -108.7983 246° West 415 478 34,000  Level Denver Center
12:21AM 37.9028 -108.9253 246° West 414 476 34,000  Level Denver Center
12:22AM 37.8567 -109.0503 245° Southwest 413 475 34,000  Level Denver Center
12:23AM 37.8022 -109.1975 245° Southwest 413 475 34,000  Level Denver Center
12:24AM 37.7561 -109.3236 245° Southwest 415 478 34,000  Level Denver Center
12:25AM 37.7019 -109.4689 245° Southwest 412 474 34,000  Level Denver Center
12:26AM 37.6561 -109.5939 245° Southwest 409 471 34,000 -480 Level Denver Center
12:27AM 37.6086 -109.7189 244° Southwest 413 475 33,100 -1,020 Descending Denver Center
12:28AM 37.5550 -109.8650 245° Southwest 413 475 32,000 -600 Descending Denver Center
12:29AM 37.5086 -109.9883 245° Southwest 409 471 32,000  Level Denver Center
12:30AM 37.4603 -110.1131 244° Southwest 412 474 32,000  Level Denver Center
12:31AM 37.4097 -110.2467 245° Southwest 422 486 32,000  Level Denver Center
12:32AM 37.3586 -110.3800 244° Southwest 424 488 32,000  Level Denver Center
12:33AM 37.3086 -110.5125 245° Southwest 421 484 32,000  Level Denver Center
12:35AM 37.2575 -110.6447 244° Southwest 421 484 32,000  Level Denver Center
12:36AM 37.1964 -110.8028 244° Southwest 420 483 32,000  Level Denver Center
12:37AM 37.1447 -110.9344 244° Southwest 421 484 32,000  Level Denver Center
12:38AM 37.0942 -111.0644 244° Southwest 416 479 32,000  Level Denver Center
12:39AM 37.0436 -111.1956 244° Southwest 418 481 32,000  Level Denver Center
12:40AM 36.9922 -111.3256 244° Southwest 416 479 32,000  Level Denver Center
12:41AM 36.9433 -111.4531 244° Southwest 411 473 32,000  Level Denver Center
12:42AM 36.8922 -111.5836 244° Southwest 413 475 32,000  Level Denver Center
12:42AM 36.8597 -111.6619 243° Southwest 409 471 32,000  Level Los Angeles Center
12:43AM 36.8067 -111.7925 243° Southwest 416 479 32,000  Level Los Angeles Center
12:44AM 36.7542 -111.9222 243° Southwest 418 481 32,000  Level Los Angeles Center
12:45AM 36.7025 -112.0514 244° Southwest 417 480 32,000  Level Los Angeles Center
12:46AM 36.6494 -112.1811 243° Southwest 418 481 32,000  Level Los Angeles Center
12:47AM 36.5864 -112.3350 243° Southwest 416 479 32,000  Level Los Angeles Center
12:49AM 36.5325 -112.4647 243° Southwest 420 483 32,000  Level Los Angeles Center
12:50AM 36.4808 -112.5953 244° Southwest 421 484 32,000  Level Los Angeles Center
12:51AM 36.4281 -112.7222 243° Southwest 416 479 32,000  Level Los Angeles Center
12:52AM 36.3642 -112.8736 242° Southwest 414 476 32,000  Level Los Angeles Center
12:53AM 36.3128 -113.0008 243° Southwest 413 475 32,000  Level Los Angeles Center
12:54AM 36.2597 -113.1258 242° Southwest 411 473 32,000  Level Los Angeles Center
12:55AM 36.2075 -113.2528 243° Southwest 412 474 32,000  Level Los Angeles Center
12:56AM 36.1561 -113.3778 243° Southwest 409 471 32,000  Level Los Angeles Center
12:57AM 36.1031 -113.5031 242° Southwest 409 471 32,000  Level Los Angeles Center
12:58AM 36.0494 -113.6281 242° Southwest 410 472 32,000  Level Los Angeles Center
12:59AM 35.9975 -113.7531 243° Southwest 409 471 32,000  Level Los Angeles Center
01:00AM 35.9439 -113.8789 242° Southwest 412 474 32,000  Level Los Angeles Center
01:01AM 35.8900 -114.0042 242° Southwest 412 474 32,000  Level Los Angeles Center
01:02AM 35.8247 -114.1542 242° Southwest 412 474 32,000  Level Los Angeles Center
01:03AM 35.7592 -114.3058 242° Southwest 415 478 32,000  Level Los Angeles Center
01:04AM 35.7050 -114.4308 242° Southwest 412 474 32,000  Level Los Angeles Center
01:05AM 35.6503 -114.5569 242° Southwest 415 478 32,000  Level Los Angeles Center
01:06AM 35.5956 -114.6831 242° Southwest 416 479 32,000  Level Los Angeles Center
01:07AM 35.5403 -114.8100 242° Southwest 419 482 32,000  Level Los Angeles Center
01:08AM 35.4850 -114.9369 242° Southwest 420 483 32,000  Level Los Angeles Center
01:09AM 35.4286 -115.0642 241° Southwest 422 486 32,000  Level Los Angeles Center
01:10AM 35.3731 -115.1919 242° Southwest 423 487 32,000  Level Los Angeles Center
01:11AM 35.3144 -115.3194 241° Southwest 427 491 32,000  Level Los Angeles Center
01:12AM 35.2586 -115.4467 242° Southwest 426 490 32,000 -420 Level Los Angeles Center
01:13AM 35.2050 -115.5675 242° Southwest 422 486 31,200 -900 Descending Los Angeles Center
01:14AM 35.1478 -115.6936 241° Southwest 423 487 30,200 -1,020 Descending Los Angeles Center
01:15AM 35.0808 -115.8444 242° Southwest 422 486 29,200 -960 Descending Los Angeles Center
01:16AM 35.0247 -115.9681 241° Southwest 419 482 28,300 -840 Descending Los Angeles Center
01:17AM 34.9792 -116.0667 241° Southwest 418 481 27,500 -960 Descending Los Angeles Center
01:18AM 34.9089 -116.2167 240° Southwest 422 486 26,400 -1,080 Descending Los Angeles Center
01:19AM 34.8531 -116.3414 241° Southwest 422 486 25,400 -1,080 Descending Los Angeles Center
01:20AM 34.7936 -116.4658 240° Southwest 419 482 24,300 -720 Descending Los Angeles Center
01:21AM 34.7150 -116.5611 225° Southwest 419 482 24,000 -780 Descending Los Angeles Center
01:22AM 34.6378 -116.6567 226° Southwest 405 466 22,800 -2,100 Descending Los Angeles Center
01:23AM 34.5619 -116.7511 226° Southwest 395 455 19,800 -2,760 Descending Los Angeles Center
01:24AM 34.4850 -116.8428 224° Southwest 388 447 17,300 -2,460 Descending Los Angeles Center
01:25AM 34.4125 -116.9314 225° Southwest 374 430 14,900 -2,220 Descending Los Angeles Center
01:26AM 34.3425 -117.0164 225° Southwest 359 413 12,800 -2,400 Descending Los Angeles Center
01:27AM 34.2614 -117.1167 226° Southwest 347 399 10,100 -1,560 Descending Los Angeles Center
01:28AM 34.2014 -117.1883 225° Southwest 316 364 9,700 -840 Descending Los Angeles Center
01:30AM 34.1458 -117.2544 225° Southwest 284 327 8,400 -1,380 Descending Los Angeles Center
01:31AM 34.1014 -117.3078 225° Southwest 281 323 7,000 -1,680 Descending Los Angeles Center
01:32AM 34.0547 -117.3900 236° Southwest 264 304 5,100 -1,260 Descending Los Angeles Center
01:33AM 34.0600 -117.4583 275° West 220 253 4,500 -1,260 Descending Los Angeles Center
01:34AM 34.0508 -117.5033 256° West 173 199 2,600 -1,500 Descending Los Angeles Center
01:35AM 34.0586 -117.5458 282° West 146 168 1,500 -660 Descending Los Angeles Center
01:36AM 34.0592 -117.5989 271° West 142 163 1,300 -240 Descending Los Angeles Center
01:38AM 34.0500 -117.6000 270° West  Level FlightAware Approximate